หน้าหลัก
METAR-TAF:

METAR-TAF

ท่าอากาศยาน :

Nampula, โมซัมบิก

ละติจูด: 15-06S, ลองจิจูด: 039-17E, ความสูง: 438 ม.

การสังเกตสภาพอากาศปัจจุบัน

รายงานได้ทำขึ้นเมื่อ 30 นาทีที่แล้ว ณ เวลา 22:00 UTC
ลม 4 นอตจากใต้/ตะวันตกเฉียงใต้
อุณหภูมิ 19°C
ความชื้น 94%
ความกดอากาศ 1019 hPa
ทัศนวิสัย 10 กม. หรือมากกว่า
ไม่มีเมฆต่ำกว่า 1,500 ม. และไม่มีเมฆคิวมูโลนิมบัส

METAR: FQNP 242200Z 21004KT CAVOK 19/18 Q1019

เวลา: 00:30 (22:30 UTC)

การพยากรณ์

รายงานได้ทำขึ้นเมื่อ 6 ชั่วโมงและ 30 นาทีที่แล้ว ณ เวลา 16:00 UTC
การพยากรณ์มีผลตั้งแต่วันที่ 24 ณ เวลา 18 UTC จนถึงวันที่ 25 ณ เวลา 18 UTC
ลม 10 นอตจากใต้/ตะวันออกเฉียงใต้
ทัศนวิสัย 10 กม. หรือมากกว่า
มีเมฆเป็นส่วนมากเว้นเป็นระยะที่ความสูง 2000 ฟุต
กำลังกลายเป็น
ตั้งแต่วันที่ 25 ณ เวลา 00 UTC จนถึงวันที่ 25 ณ เวลา 02 UTC
ลม 8 นอตจากตะวันตก/ตะวันตกเฉียงใต้
กำลังกลายเป็น
ตั้งแต่วันที่ 25 ณ เวลา 07 UTC จนถึงวันที่ 25 ณ เวลา 09 UTC
ลม 10 นอตจากใต้

TAF: FQNP 241600Z 2418/2518 15010KT 9999 BKN020 TX28/2513Z TN19/2503Z BECMG 2500/2502 25008KT BECMG 2507/2509 17010KT

สังเกตการณ์สภาพอากาศและพยากรณ์อากาศของสนามบินมากกว่า 4000 แห่ง (รายงาน METAR และ TAF).

สถานีที่ดูได้จะแสดงไว้ด้วยจุดสีเหลืองและสีแดงบนแผนที่.

เลื่อนเมาส์ไปเหนือจุดเพื่อดูชื่อสถานี.

แล้วคลิกเพื่อดูสังเกตการณ์และการพยากรณ์สภาพอากาศ.

ในการเปลี่ยนแผนที่: คลิกที่ปุ่มสีเขียวที่มีกากบาทสีดำเพื่อซูมเข้า; ที่ปุ่มสีเขียวที่มีขีดเพื่อซูมออก; หรือที่ลูกศรสีเขียวเพื่อไปยังแผนที่ที่อยู่ติดกัน.


METAR-TAF: